createdAt,value
2019-06-08T00:00:49.720Z,74.59
2019-06-08T00:03:17.011Z,78.91
2019-06-08T00:05:44.275Z,76.49
2019-06-08T00:08:12.985Z,77.02
2019-06-08T00:10:40.399Z,78.36
2019-06-08T00:13:07.669Z,78.14
2019-06-08T00:15:35.135Z,76.64
2019-06-08T00:18:02.380Z,75.60
2019-06-08T00:20:29.649Z,78.06
2019-06-08T00:22:56.891Z,75.50
2019-06-08T00:25:24.302Z,78.18
2019-06-08T00:27:51.615Z,75.59
2019-06-08T00:30:19.222Z,78.18
2019-06-08T00:32:46.477Z,78.30
2019-06-08T00:35:14.494Z,78.63
2019-06-08T00:37:41.823Z,76.91
2019-06-08T00:40:09.689Z,75.76
2019-06-08T00:42:36.878Z,74.56
2019-06-08T00:45:04.906Z,74.62
2019-06-08T00:47:47.171Z,75.37
2019-06-08T00:50:01.700Z,76.71
2019-06-08T00:52:31.243Z,74.96
2019-06-08T00:54:58.457Z,75.28
2019-06-08T00:57:26.084Z,76.42
2019-06-08T00:59:53.383Z,75.96
2019-06-08T01:02:20.681Z,75.80
2019-06-08T01:04:47.830Z,75.42
2019-06-08T01:07:15.119Z,75.47
2019-06-08T01:09:42.401Z,74.87
2019-06-08T01:12:09.568Z,76.84
2019-06-08T01:14:36.950Z,75.32
2019-06-08T01:17:04.471Z,75.15
2019-06-08T01:19:31.939Z,75.81
2019-06-08T01:21:59.333Z,76.63
2019-06-08T01:24:28.034Z,75.17
2019-06-08T01:26:55.485Z,75.46
2019-06-08T01:29:24.027Z,75.88
2019-06-08T01:31:51.440Z,77.00
2019-06-08T01:34:20.600Z,76.32
2019-06-08T01:36:48.022Z,76.21
2019-06-08T01:39:15.311Z,75.49
2019-06-08T01:41:42.571Z,76.71
2019-06-08T01:44:10.024Z,77.18
2019-06-08T01:46:37.299Z,75.50
2019-06-08T01:49:04.758Z,75.94
2019-06-08T01:51:32.735Z,75.55
2019-06-08T01:54:00.189Z,76.69
2019-06-08T01:56:27.478Z,76.11
2019-06-08T01:58:54.857Z,76.01
2019-06-08T02:01:22.014Z,75.70
2019-06-08T02:03:49.465Z,76.59
2019-06-08T02:06:16.829Z,76.15
2019-06-08T02:08:44.186Z,75.04
2019-06-08T02:11:11.638Z,76.87
2019-06-08T02:13:39.007Z,75.84
2019-06-08T02:16:06.523Z,74.75
2019-06-08T02:18:46.847Z,74.66
2019-06-08T02:21:03.327Z,73.88
2019-06-08T02:23:31.134Z,73.87
2019-06-08T02:25:58.766Z,73.02
2019-06-08T02:28:27.348Z,72.57
2019-06-08T02:30:54.919Z,72.30
2019-06-08T02:33:22.274Z,71.25
2019-06-08T02:35:49.540Z,71.04
2019-06-08T02:38:17.182Z,70.53
2019-06-08T02:40:44.454Z,69.23
2019-06-08T02:43:11.922Z,69.07
2019-06-08T02:45:40.392Z,68.60
2019-06-08T02:48:08.180Z,67.81
2019-06-08T02:51:01.183Z,68.30
2019-06-08T02:53:29.483Z,66.94
2019-06-08T02:55:58.867Z,67.65
2019-06-08T02:58:26.311Z,67.00
2019-06-08T03:00:55.294Z,66.70
2019-06-08T03:03:24.166Z,67.11
2019-06-08T03:05:51.568Z,65.85
2019-06-08T03:08:20.080Z,66.02
2019-06-08T03:10:50.992Z,66.04
2019-06-08T03:13:23.996Z,65.44
2019-06-08T03:15:52.397Z,65.31
2019-06-08T03:18:19.770Z,65.88
2019-06-08T03:20:47.017Z,65.51
2019-06-08T03:23:14.541Z,65.79
2019-06-08T03:25:51.538Z,65.69
2019-06-08T03:28:10.762Z,66.11
2019-06-08T03:30:45.418Z,65.01
2019-06-08T03:33:07.142Z,64.96
2019-06-08T03:35:36.064Z,65.46
2019-06-08T03:38:03.701Z,65.18
2019-06-08T03:40:33.934Z,64.85
2019-06-08T03:43:01.840Z,63.57
2019-06-08T03:45:29.204Z,63.89
2019-06-08T03:47:56.326Z,64.70
2019-06-08T03:50:26.104Z,63.26
2019-06-08T03:52:53.579Z,62.55
2019-06-08T03:55:20.868Z,62.67
2019-06-08T03:57:48.137Z,62.43
2019-06-08T04:00:16.470Z,63.53
2019-06-08T04:02:46.708Z,62.94
2019-06-08T04:05:13.563Z,62.77
2019-06-08T04:07:42.178Z,63.00
2019-06-08T04:10:10.570Z,61.71
2019-06-08T04:12:37.864Z,61.26
2019-06-08T04:15:05.921Z,61.22
2019-06-08T04:17:33.281Z,60.84
2019-06-08T04:20:10.582Z,60.56
2019-06-08T04:22:33.031Z,60.09
2019-06-08T04:25:00.213Z,60.42
2019-06-08T04:27:27.397Z,61.55
2019-06-08T04:29:57.626Z,60.46
2019-06-08T04:32:25.092Z,60.73
2019-06-08T04:34:52.253Z,60.25
2019-06-08T04:37:19.643Z,59.29
2019-06-08T04:39:47.054Z,60.50
2019-06-08T04:42:14.303Z,58.39
2019-06-08T04:44:42.572Z,58.80
2019-06-08T04:47:09.958Z,59.53
2019-06-08T04:49:38.498Z,59.05
2019-06-08T04:52:05.779Z,59.06
2019-06-08T04:54:33.065Z,58.58
2019-06-08T04:57:00.320Z,57.66
2019-06-08T04:59:27.481Z,57.00
2019-06-08T05:01:54.745Z,56.74
2019-06-08T05:04:22.175Z,57.10
2019-06-08T05:06:49.694Z,56.59
2019-06-08T05:09:17.125Z,56.04
2019-06-08T05:11:45.264Z,54.94
2019-06-08T05:14:12.779Z,53.52
2019-06-08T05:16:41.272Z,49.30
2019-06-08T05:19:08.668Z,48.41
2019-06-08T05:21:37.298Z,48.06
2019-06-08T05:24:04.764Z,46.36
2019-06-08T05:26:32.024Z,46.07
2019-06-08T05:28:59.291Z,45.30
2019-06-08T05:31:26.441Z,45.06
2019-06-08T05:33:53.741Z,46.03
2019-06-08T05:36:21.060Z,49.20
2019-06-08T05:38:49.956Z,46.75
2019-06-08T05:41:17.390Z,46.61
2019-06-08T05:43:45.615Z,47.58
2019-06-08T05:46:23.017Z,44.64
2019-06-08T05:48:50.516Z,43.00
2019-06-08T05:51:17.821Z,44.08
2019-06-08T05:53:45.856Z,41.81
2019-06-08T05:56:13.214Z,43.75
2019-06-08T05:58:40.369Z,46.48
2019-06-08T06:01:07.846Z,44.10
2019-06-08T06:03:35.130Z,44.41
2019-06-08T06:06:03.119Z,46.39
2019-06-08T06:08:30.397Z,45.64
2019-06-08T06:11:00.626Z,45.46
2019-06-08T06:13:28.051Z,45.86
2019-06-08T06:15:55.215Z,48.26
2019-06-08T06:18:22.570Z,46.76
2019-06-08T06:20:51.360Z,48.07
2019-06-08T06:23:18.960Z,47.65
2019-06-08T06:25:47.461Z,47.27
2019-06-08T06:28:15.280Z,47.71
2019-06-08T06:30:44.187Z,47.60
2019-06-08T06:33:11.711Z,47.84
2019-06-08T06:35:39.073Z,47.57
2019-06-08T06:38:06.446Z,47.24
2019-06-08T06:40:33.869Z,47.65
2019-06-08T06:43:01.247Z,48.45
2019-06-08T06:45:28.632Z,48.34
2019-06-08T06:47:57.341Z,46.76
2019-06-08T06:50:24.838Z,45.58
2019-06-08T06:52:52.968Z,45.35
2019-06-08T06:55:20.545Z,45.65
2019-06-08T06:57:49.256Z,48.75
2019-06-08T07:00:29.318Z,46.18
2019-06-08T07:02:58.299Z,45.18
2019-06-08T07:05:25.649Z,45.27
2019-06-08T07:07:55.691Z,45.92
2019-06-08T07:10:23.561Z,45.72
2019-06-08T07:12:50.927Z,46.97
2019-06-08T07:15:26.926Z,44.85
2019-06-08T07:17:55.360Z,46.57
2019-06-08T07:20:22.809Z,44.76
2019-06-08T07:22:50.513Z,44.89
2019-06-08T07:25:17.805Z,45.31
2019-06-08T07:27:46.379Z,45.15
2019-06-08T07:30:13.977Z,45.40
2019-06-08T07:32:41.211Z,45.06
2019-06-08T07:35:08.708Z,45.81
2019-06-08T07:37:36.107Z,45.59
2019-06-08T07:40:04.185Z,44.32
2019-06-08T07:42:31.455Z,45.19
2019-06-08T07:45:00.213Z,44.21
2019-06-08T07:47:27.637Z,43.83
2019-06-08T07:49:55.578Z,44.52
2019-06-08T07:52:23.104Z,44.31
2019-06-08T07:54:53.420Z,43.22
2019-06-08T07:57:21.820Z,43.42
2019-06-08T07:59:50.316Z,42.79
2019-06-08T08:02:17.832Z,43.34
2019-06-08T08:04:45.091Z,43.18
2019-06-08T08:07:12.550Z,42.31
2019-06-08T08:09:40.052Z,41.93
2019-06-08T08:12:07.428Z,43.39
2019-06-08T08:14:34.896Z,43.05
2019-06-08T08:17:02.379Z,42.77
2019-06-08T08:19:29.762Z,42.13
2019-06-08T08:22:03.181Z,43.05
2019-06-08T08:24:27.186Z,43.58
2019-06-08T08:26:56.989Z,42.26
2019-06-08T08:29:23.821Z,42.46
2019-06-08T08:31:51.842Z,41.89
2019-06-08T08:34:22.530Z,41.91
2019-06-08T08:36:51.102Z,41.76
2019-06-08T08:39:19.005Z,43.39
2019-06-08T08:41:49.952Z,42.51
2019-06-08T08:44:17.446Z,42.37
2019-06-08T08:46:44.486Z,41.64
2019-06-08T08:49:13.064Z,42.32
2019-06-08T08:51:40.603Z,42.17
2019-06-08T08:54:08.621Z,42.81
2019-06-08T08:56:38.352Z,41.88
2019-06-08T08:59:07.865Z,42.48
2019-06-08T09:01:34.634Z,41.76
2019-06-08T09:04:04.998Z,42.53
2019-06-08T09:06:31.371Z,41.01
2019-06-08T09:09:01.751Z,41.01
2019-06-08T09:11:28.889Z,41.13
2019-06-08T09:14:02.520Z,40.30
2019-06-08T09:16:25.769Z,40.41
2019-06-08T09:18:54.061Z,40.46
2019-06-08T09:21:23.009Z,39.52
2019-06-08T09:23:52.301Z,39.20
2019-06-08T09:26:19.709Z,38.87
2019-06-08T09:28:49.462Z,39.28
2019-06-08T09:31:18.645Z,38.55
2019-06-08T09:33:55.193Z,38.85
2019-06-08T09:36:17.570Z,39.72
2019-06-08T09:38:44.770Z,39.98
2019-06-08T09:41:12.028Z,39.59
2019-06-08T09:43:39.423Z,38.98
2019-06-08T09:46:09.144Z,39.50
2019-06-08T09:48:38.052Z,38.64
2019-06-08T09:51:06.419Z,38.29
2019-06-08T09:53:40.503Z,38.94
2019-06-08T09:56:06.647Z,38.31
2019-06-08T09:58:33.390Z,37.61
2019-06-08T10:01:03.669Z,37.73
2019-06-08T10:03:30.830Z,35.54
2019-06-08T10:06:01.586Z,36.46
2019-06-08T10:08:28.382Z,36.03
2019-06-08T10:10:57.283Z,35.30
2019-06-08T10:13:25.115Z,34.65
2019-06-08T10:15:52.409Z,35.52
2019-06-08T10:18:19.877Z,35.52
2019-06-08T10:20:48.205Z,34.32
2019-06-08T10:23:29.926Z,33.89
2019-06-08T10:25:45.008Z,33.78
2019-06-08T10:28:15.927Z,33.89
2019-06-08T10:30:41.642Z,31.78
2019-06-08T10:33:10.084Z,31.91
2019-06-08T10:35:38.292Z,31.04
2019-06-08T10:38:11.523Z,31.27
2019-06-08T10:40:58.747Z,30.87
2019-06-08T10:43:28.934Z,30.82
2019-06-08T10:46:00.112Z,32.06
2019-06-08T10:48:27.642Z,31.99
2019-06-08T10:50:58.541Z,32.03
2019-06-08T10:53:25.679Z,32.03
2019-06-08T10:55:53.093Z,32.17
2019-06-08T10:58:21.629Z,32.21
2019-06-08T11:00:49.069Z,32.19
2019-06-08T11:03:17.018Z,31.17
2019-06-08T11:05:44.532Z,31.05
2019-06-08T11:08:14.597Z,30.66
2019-06-08T11:10:41.896Z,29.40
2019-06-08T11:13:15.008Z,29.65
2019-06-08T11:15:38.844Z,27.30
2019-06-08T11:18:09.973Z,29.05
2019-06-08T11:20:38.227Z,26.10
2019-06-08T11:23:05.680Z,26.21
2019-06-08T11:25:34.703Z,26.43
2019-06-08T11:28:03.520Z,26.72
2019-06-08T11:30:31.376Z,27.12
2019-06-08T11:32:59.889Z,25.58
2019-06-08T11:35:28.931Z,26.83
2019-06-08T11:37:58.478Z,25.24
2019-06-08T11:40:27.720Z,25.86
2019-06-08T11:42:54.757Z,26.55
2019-06-08T11:45:22.241Z,27.05
2019-06-08T11:47:50.197Z,27.04
2019-06-08T11:50:49.138Z,27.17
2019-06-08T11:53:18.069Z,27.22
2019-06-08T11:55:50.642Z,28.10
2019-06-08T11:58:22.523Z,29.16
2019-06-08T12:01:02.852Z,28.97
2019-06-08T12:03:30.676Z,27.22
2019-06-08T12:05:58.692Z,28.93
2019-06-08T12:08:28.423Z,26.65
2019-06-08T12:11:01.251Z,26.81
2019-06-08T12:13:27.619Z,27.42
2019-06-08T12:15:55.219Z,26.76
2019-06-08T12:18:22.706Z,27.50
2019-06-08T12:20:50.235Z,28.34
2019-06-08T12:23:17.570Z,27.80
2019-06-08T12:25:44.970Z,28.06
2019-06-08T12:28:12.616Z,28.61
2019-06-08T12:30:39.990Z,28.22
2019-06-08T12:33:09.778Z,27.85
2019-06-08T12:35:36.782Z,28.40
2019-06-08T12:38:05.568Z,29.01
2019-06-08T12:40:33.943Z,28.90
2019-06-08T12:43:03.644Z,28.36
2019-06-08T12:45:31.449Z,27.08
2019-06-08T12:47:58.725Z,27.18
2019-06-08T12:50:29.437Z,28.20
2019-06-08T12:52:58.333Z,27.59
2019-06-08T12:55:27.389Z,27.98
2019-06-08T12:57:54.777Z,29.19
2019-06-08T13:00:22.417Z,27.51
2019-06-08T13:02:50.858Z,29.21
2019-06-08T13:05:22.590Z,27.87
2019-06-08T13:07:51.247Z,29.01
2019-06-08T13:10:23.476Z,28.35
2019-06-08T13:12:48.107Z,29.94
2019-06-08T13:15:19.597Z,29.75
2019-06-08T13:17:50.435Z,29.41
2019-06-08T13:20:22.385Z,29.08
2019-06-08T13:22:50.036Z,30.82
2019-06-08T13:25:33.891Z,29.38
2019-06-08T13:27:47.919Z,30.41
2019-06-08T13:30:19.725Z,30.84
2019-06-08T13:32:48.125Z,30.58
2019-06-08T13:35:21.164Z,30.07
2019-06-08T13:37:52.728Z,30.72
2019-06-08T13:40:23.239Z,30.17
2019-06-08T13:42:51.174Z,30.38
2019-06-08T13:45:21.649Z,30.41
2019-06-08T13:47:50.436Z,30.49
2019-06-08T13:50:20.347Z,29.93
2019-06-08T13:58:15.116Z,30.73
2019-06-08T14:10:19.608Z,30.31
2019-06-08T14:13:55.227Z,30.64
2019-06-08T14:17:24.132Z,30.35
2019-06-08T14:20:49.713Z,31.06
2019-06-08T14:29:04.497Z,30.97
2019-06-08T14:37:12.831Z,30.55
2019-06-08T14:41:07.532Z,29.26
2019-06-08T14:52:59.619Z,30.48
2019-06-08T14:56:19.882Z,31.60
2019-06-08T15:00:12.491Z,31.55
2019-06-08T15:03:48.042Z,31.07
2019-06-08T15:07:44.127Z,31.62
2019-06-08T15:15:48.354Z,31.99
2019-06-08T15:19:26.463Z,31.42
2019-06-08T15:26:23.212Z,31.77
2019-06-08T15:33:52.078Z,33.04
2019-06-08T19:06:18.730Z,36.70
2019-06-08T20:18:32.285Z,41.38
2019-06-08T20:21:42.807Z,41.52
2019-06-08T20:24:55.749Z,42.70
2019-06-08T20:27:51.810Z,42.03
2019-06-08T20:30:52.666Z,42.24
2019-06-08T20:37:24.079Z,42.39
2019-06-08T20:40:21.254Z,43.08
2019-06-08T20:43:22.253Z,43.94
2019-06-08T20:46:49.469Z,43.58
2019-06-08T20:49:48.622Z,43.51
2019-06-08T20:53:08.488Z,43.21
2019-06-08T20:55:57.239Z,43.77
2019-06-08T20:59:03.231Z,43.91
2019-06-08T21:02:22.121Z,46.31
2019-06-08T21:05:43.644Z,44.48
2019-06-08T21:12:10.436Z,45.04
2019-06-08T21:15:04.141Z,44.26
2019-06-08T21:18:22.673Z,44.86
2019-06-08T21:20:53.139Z,46.34
2019-06-08T21:23:21.141Z,44.97
2019-06-08T21:25:50.855Z,46.98
2019-06-08T21:28:20.352Z,45.36
2019-06-08T21:30:53.362Z,44.95
2019-06-08T21:33:19.128Z,47.06
2019-06-08T21:35:49.664Z,47.29
2019-06-08T21:38:23.810Z,46.22
2019-06-08T21:40:50.977Z,45.66
2019-06-08T21:43:18.496Z,44.90
2019-06-08T21:45:48.719Z,45.23
2019-06-08T21:48:16.581Z,45.28
2019-06-08T21:50:44.858Z,45.51
2019-06-08T21:53:13.389Z,45.54
2019-06-08T21:55:42.289Z,45.51
2019-06-08T21:58:11.061Z,45.34
2019-06-08T22:00:43.358Z,44.94
2019-06-08T22:03:10.155Z,45.50
2019-06-08T22:05:38.829Z,45.60
2019-06-08T22:08:07.949Z,45.16
2019-06-08T22:10:37.728Z,45.23
2019-06-08T22:13:08.651Z,45.61
2019-06-08T22:15:37.903Z,46.22
2019-06-08T22:18:08.032Z,46.85
2019-06-08T22:20:38.242Z,46.58
2019-06-08T22:23:07.347Z,45.92
2019-06-08T22:25:38.557Z,46.00
2019-06-08T22:28:07.346Z,45.91
2019-06-08T22:30:42.607Z,46.26
2019-06-08T22:33:21.647Z,46.51
2019-06-08T22:35:50.165Z,49.34
2019-06-08T22:38:19.001Z,52.95
2019-06-08T22:40:48.001Z,57.58
2019-06-08T22:43:19.062Z,57.12
2019-06-08T22:45:48.116Z,59.20
2019-06-08T22:48:18.692Z,58.13
2019-06-08T22:50:47.697Z,62.29
2019-06-08T22:53:16.421Z,61.67
2019-06-08T22:55:44.877Z,60.49
2019-06-08T22:58:13.216Z,62.17
2019-06-08T23:00:52.303Z,61.39
2019-06-08T23:03:11.365Z,61.75
2019-06-08T23:05:39.563Z,60.69
2019-06-08T23:08:09.429Z,55.83
2019-06-08T23:10:37.837Z,55.02
2019-06-08T23:13:08.285Z,54.99
2019-06-08T23:15:44.765Z,54.99
2019-06-08T23:18:13.376Z,54.39
2019-06-08T23:20:41.859Z,55.04
2019-06-08T23:23:09.509Z,53.90
2019-06-08T23:25:37.838Z,55.59
2019-06-08T23:28:09.691Z,62.40
2019-06-08T23:30:38.219Z,61.41
2019-06-08T23:33:11.110Z,60.44
2019-06-08T23:35:47.898Z,56.26
2019-06-08T23:38:08.079Z,54.97
2019-06-08T23:40:37.892Z,55.99
2019-06-08T23:43:06.030Z,56.58
2019-06-08T23:45:34.374Z,55.00
2019-06-08T23:48:02.921Z,58.87
2019-06-08T23:50:30.956Z,60.57
2019-06-08T23:52:59.617Z,62.40
2019-06-08T23:55:28.925Z,62.61
2019-06-08T23:57:57.294Z,64.47
